Kegley, West Virginia
Current Conditions -  °F | °C
As of 10:52 PM on Saturday 24 Jan 2015 (Local Time) from KBLF Reporting Station
Overcast Overcast  
Wind Chill: 20°   Ceiling: 1100
Heat Index: 31°   Visibility: 10mi
Dew Point: 26°   Wind: 15mph
Humidity: 82%   Direction: 300°WNW
Pressure: 29.78"   Gusts: 28mph
Location:  37.4°N, 81.13°W
Report Text: KBLF 250352Z AUTO 30013G24KT 10SM OVC011 M01/M03 A2978 RMK AO2 PK WND 27027/0302 SLP100 T10061033
Loading
Personal Weather Stations






























Interactive Weather Map New forecast layout! Learn more

10-Day Weather Forecast

Advertisements
Track Severe Weather on mobile